Time;durP1;ratioP1;P1;durP2;ratioP2;P2;SDS_P1;SDS_P2;PMS_P1;PMS_P2;Temp;Humidity;BMP_temperature;BMP_pressure;BME280_temperature;BME280_humidity;BME280_pressure;Samples;Min_cycle;Max_cycle;Signal;HPM_P1;HPM_P2
2021/04/29 00:01:43;;;;;;;11.30;9.40;;;16.20;99.90;;;;;;5047346;28;20031;-82
2021/04/29 00:04:09;;;;;;;11.43;9.18;;;16.20;99.90;;;;;;5040425;28;20515;-82
2021/04/29 00:06:35;;;;;;;8.70;7.80;;;16.20;99.90;;;;;;5031473;28;20033;-82
2021/04/29 00:09:02;;;;;;;9.30;8.30;;;16.30;99.90;;;;;;5054640;28;20032;-82
2021/04/29 00:11:28;;;;;;;9.95;8.48;;;16.10;99.90;;;;;;5049278;28;20047;-82
2021/04/29 00:13:53;;;;;;;9.00;7.68;;;16.10;99.90;;;;;;5048124;28;20029;-82
2021/04/29 00:16:19;;;;;;;9.60;7.70;;;16.10;99.90;;;;;;5048616;28;20041;-81
2021/04/29 00:18:45;;;;;;;10.15;7.63;;;16.10;99.90;;;;;;5042851;28;20021;-81
2021/04/29 00:21:10;;;;;;;8.25;7.43;;;16.00;99.90;;;;;;5054087;28;20029;-81
2021/04/29 00:23:36;;;;;;;9.15;7.43;;;16.10;99.90;;;;;;5049743;28;20052;-82
2021/04/29 00:26:01;;;;;;;8.73;7.80;;;16.00;99.90;;;;;;5048499;28;20119;-82
2021/04/29 00:28:27;;;;;;;8.45;7.55;;;16.10;99.90;;;;;;5047932;28;20032;-82
2021/04/29 00:30:53;;;;;;;9.43;7.45;;;16.00;99.90;;;;;;5047384;28;20040;-82
2021/04/29 00:33:18;;;;;;;9.02;8.13;;;16.00;99.90;;;;;;5039677;28;20037;-80
2021/04/29 00:35:44;;;;;;;8.38;7.35;;;16.00;99.90;;;;;;5051244;28;20041;-82
2021/04/29 00:38:09;;;;;;;10.00;7.72;;;15.90;99.90;;;;;;5048204;28;20118;-82
2021/04/29 00:40:35;;;;;;;9.10;7.68;;;15.80;99.90;;;;;;5046740;28;20104;-82
2021/04/29 00:43:01;;;;;;;8.27;7.35;;;16.00;99.90;;;;;;5047709;28;20485;-82
2021/04/29 00:45:26;;;;;;;8.80;7.63;;;15.70;99.90;;;;;;5049898;28;20025;-82
2021/04/29 00:47:52;;;;;;;8.75;7.85;;;15.70;99.90;;;;;;5041046;28;20030;-82
2021/04/29 00:50:24;;;;;;;8.27;7.40;;;16.00;99.90;;;;;;5046080;28;20025;-81
2021/04/29 00:52:50;;;;;;;9.45;8.13;;;16.00;99.90;;;;;;5048329;28;20033;-82
2021/04/29 00:55:16;;;;;;;10.32;7.75;;;16.00;99.90;;;;;;5047585;28;20033;-82
2021/04/29 00:57:41;;;;;;;8.98;7.80;;;16.10;99.90;;;;;;5047320;28;20042;-82
2021/04/29 01:00:10;;;;;;;11.77;9.27;;;16.00;99.90;;;;;;5054243;28;20032;-82
2021/04/29 01:02:38;;;;;;;11.00;8.40;;;15.90;99.90;;;;;;5037077;28;20108;-81
2021/04/29 01:05:15;;;;;;;10.45;8.50;;;15.90;99.90;;;;;;5043835;28;20377;-82
2021/04/29 01:07:49;;;;;;;11.90;9.27;;;16.00;99.90;;;;;;5047874;28;20505;-82
2021/04/29 01:10:26;;;;;;;14.90;12.77;;;15.90;99.90;;;;;;5047857;28;20091;-82
2021/04/29 01:13:13;;;;;;;14.45;12.07;;;15.80;99.90;;;;;;5047890;28;20175;-82
2021/04/29 01:15:43;;;;;;;14.93;11.90;;;15.90;99.90;;;;;;5017125;28;20033;-82
2021/04/29 01:18:13;;;;;;;15.73;12.48;;;16.00;99.90;;;;;;5047003;28;20032;-82
2021/04/29 01:20:52;;;;;;;15.98;13.05;;;16.00;99.90;;;;;;5048655;28;20033;-81
2021/04/29 01:23:36;;;;;;;14.75;12.65;;;16.00;99.90;;;;;;5044567;28;20092;-82
2021/04/29 01:26:27;;;;;;;14.90;12.27;;;16.00;99.90;;;;;;5046686;28;20477;-82
2021/04/29 01:28:54;;;;;;;17.70;12.48;;;15.80;99.90;;;;;;5001551;28;20042;-82
2021/04/29 01:31:24;;;;;;;14.98;12.00;;;15.80;99.90;;;;;;4995568;28;20431;-82
2021/04/29 01:33:51;;;;;;;13.63;11.60;;;15.90;99.90;;;;;;4993348;28;20035;-82
2021/04/29 01:36:18;;;;;;;13.75;11.95;;;15.90;99.90;;;;;;4994029;28;20066;-82
2021/04/29 01:38:44;;;;;;;13.45;11.27;;;15.90;99.90;;;;;;4992356;28;20413;-82
2021/04/29 01:41:10;;;;;;;20.77;17.70;;;15.90;99.90;;;;;;5003000;28;20125;-82
2021/04/29 01:43:36;;;;;;;21.48;17.40;;;15.70;99.90;;;;;;5003624;28;20085;-82
2021/04/29 01:46:05;;;;;;;18.90;16.30;;;15.80;99.90;;;;;;4994311;28;20526;-82
2021/04/29 01:48:31;;;;;;;20.17;16.88;;;15.80;99.90;;;;;;4991880;28;20038;-82
2021/04/29 01:50:57;;;;;;;22.55;17.02;;;15.90;99.90;;;;;;4996060;28;20097;-82
2021/04/29 01:53:27;;;;;;;21.75;16.63;;;15.70;99.90;;;;;;4992678;28;20157;-82
2021/04/29 01:55:53;;;;;;;21.50;17.77;;;15.60;99.90;;;;;;4995269;28;20042;-82
2021/04/29 01:58:20;;;;;;;22.02;17.83;;;15.70;99.90;;;;;;4995161;28;20022;-81
2021/04/29 02:00:45;;;;;;;24.30;17.67;;;15.60;99.90;;;;;;4991629;28;20062;-82
2021/04/29 02:03:13;;;;;;;21.98;17.35;;;15.40;99.90;;;;;;4994680;28;20443;-83
2021/04/29 02:05:38;;;;;;;21.70;16.85;;;15.50;99.90;;;;;;5003473;28;20056;-82
2021/04/29 02:08:05;;;;;;;21.90;16.63;;;15.60;99.90;;;;;;5032181;28;20493;-82
2021/04/29 02:10:31;;;;;;;19.58;16.33;;;15.50;99.90;;;;;;5046023;28;20017;-83
2021/04/29 02:12:57;;;;;;;18.88;15.30;;;15.50;99.90;;;;;;5045417;28;20034;-82
2021/04/29 02:15:29;;;;;;;16.50;13.18;;;15.60;99.90;;;;;;5049400;28;20063;-83
2021/04/29 02:17:57;;;;;;;17.50;13.10;;;15.40;99.90;;;;;;5049987;28;20120;-82
2021/04/29 02:20:24;;;;;;;14.23;12.30;;;15.40;99.90;;;;;;5045980;28;20397;-82
2021/04/29 02:22:51;;;;;;;13.85;11.60;;;15.50;99.90;;;;;;5041028;28;20029;-82
2021/04/29 02:25:22;;;;;;;14.15;10.85;;;15.50;99.90;;;;;;5046016;28;20489;-82
2021/04/29 02:27:48;;;;;;;13.82;10.25;;;15.30;99.90;;;;;;5046310;28;20079;-83
2021/04/29 02:30:16;;;;;;;11.93;9.93;;;15.40;99.90;;;;;;5051385;28;20651;-83
2021/04/29 02:32:42;;;;;;;10.93;9.77;;;15.40;99.90;;;;;;5048377;28;20387;-82
2021/04/29 02:35:10;;;;;;;12.40;9.48;;;15.50;99.90;;;;;;5046101;28;20052;-82
2021/04/29 02:37:37;;;;;;;11.40;9.55;;;15.20;99.90;;;;;;5037225;28;20323;-82
2021/04/29 02:40:08;;;;;;;12.88;9.13;;;15.10;99.90;;;;;;5046318;28;20013;-82
2021/04/29 02:42:34;;;;;;;10.40;9.25;;;15.10;99.90;;;;;;5046948;28;20071;-83
2021/04/29 02:45:00;;;;;;;9.57;8.43;;;15.20;99.90;;;;;;5051780;28;20095;-82
2021/04/29 02:47:26;;;;;;;10.63;8.95;;;15.20;99.90;;;;;;5044671;28;20040;-82
2021/04/29 02:49:52;;;;;;;9.82;8.50;;;15.10;99.90;;;;;;5046008;28;20036;-82
2021/04/29 02:52:19;;;;;;;9.10;8.10;;;15.10;99.90;;;;;;5036547;28;20029;-82
2021/04/29 02:54:45;;;;;;;9.07;8.13;;;15.00;99.90;;;;;;5045574;28;20025;-82
2021/04/29 02:57:20;;;;;;;9.98;7.90;;;15.00;99.90;;;;;;5051017;28;20098;-82
2021/04/29 02:59:45;;;;;;;9.32;8.43;;;15.00;99.90;;;;;;5049094;28;20047;-82
2021/04/29 03:02:11;;;;;;;11.10;9.00;;;15.00;99.90;;;;;;5045820;28;20041;-82
2021/04/29 03:04:37;;;;;;;9.85;8.80;;;15.00;99.90;;;;;;5046121;28;20099;-82
2021/04/29 03:07:02;;;;;;;10.10;8.93;;;14.90;99.90;;;;;;5034439;28;20052;-82
2021/04/29 03:09:28;;;;;;;10.00;9.00;;;15.00;99.90;;;;;;5047203;28;20405;-82
2021/04/29 03:11:53;;;;;;;10.15;8.63;;;14.90;99.90;;;;;;5050488;28;20087;-82
2021/04/29 03:14:19;;;;;;;10.60;8.80;;;14.90;99.90;;;;;;5045351;28;20021;-82
2021/04/29 03:16:45;;;;;;;10.45;8.43;;;14.90;99.90;;;;;;5043622;28;20037;-83
2021/04/29 03:19:10;;;;;;;9.93;8.77;;;14.80;99.90;;;;;;5045736;28;20070;-82
2021/04/29 03:21:36;;;;;;;10.65;8.70;;;14.90;99.90;;;;;;5029076;28;20037;-82
2021/04/29 03:24:03;;;;;;;9.70;8.40;;;14.80;99.90;;;;;;5051237;28;20096;-82
2021/04/29 03:26:28;;;;;;;9.43;8.07;;;14.80;99.90;;;;;;5045202;28;20087;-82
2021/04/29 03:28:54;;;;;;;10.45;8.02;;;14.70;99.90;;;;;;5045622;28;20025;-82
2021/04/29 03:31:19;;;;;;;9.25;8.25;;;14.70;99.90;;;;;;5045556;28;20056;-81
2021/04/29 03:33:45;;;;;;;9.52;8.57;;;14.60;99.90;;;;;;5045549;28;20025;-82
2021/04/29 03:36:11;;;;;;;10.05;7.95;;;14.60;99.90;;;;;;5031875;28;20041;-82
2021/04/29 03:38:36;;;;;;;10.00;8.25;;;14.60;99.90;;;;;;5044564;28;20104;-83
2021/04/29 03:41:02;;;;;;;9.40;8.25;;;14.70;99.90;;;;;;5045168;28;20023;-82
2021/04/29 03:43:28;;;;;;;8.65;7.75;;;14.60;99.90;;;;;;5045447;28;20171;-82
2021/04/29 03:45:54;;;;;;;8.70;7.82;;;14.50;99.90;;;;;;5045274;28;20033;-82
2021/04/29 03:48:19;;;;;;;9.60;8.13;;;14.60;99.90;;;;;;5048702;28;20032;-83
2021/04/29 03:50:45;;;;;;;10.15;7.68;;;14.50;99.90;;;;;;5044337;28;20489;-82
2021/04/29 03:53:12;;;;;;;8.45;7.18;;;14.50;99.90;;;;;;5045401;28;20380;-83
2021/04/29 03:55:37;;;;;;;8.45;7.60;;;14.50;99.90;;;;;;5043482;28;20083;-82
2021/04/29 03:58:03;;;;;;;9.73;8.05;;;14.50;99.90;;;;;;5045388;28;20033;-83
2021/04/29 04:00:28;;;;;;;9.30;7.95;;;14.50;99.90;;;;;;5046467;28;20037;-82
2021/04/29 04:02:54;;;;;;;8.30;7.50;;;14.50;99.90;;;;;;5050155;28;20381;-82
2021/04/29 04:05:20;;;;;;;8.85;7.68;;;14.50;99.90;;;;;;5038993;28;20036;-82
2021/04/29 04:07:45;;;;;;;10.82;8.63;;;14.40;99.90;;;;;;5045156;28;20029;-83
2021/04/29 04:10:11;;;;;;;10.23;8.32;;;14.60;99.90;;;;;;5043887;28;20176;-82
2021/04/29 04:12:37;;;;;;;9.45;8.48;;;14.40;99.90;;;;;;5016904;28;20029;-82
2021/04/29 04:15:04;;;;;;;9.45;8.45;;;14.30;99.90;;;;;;5051593;28;20025;-82
2021/04/29 04:17:30;;;;;;;9.75;8.38;;;14.30;99.90;;;;;;5044641;28;20051;-83
2021/04/29 04:19:55;;;;;;;8.50;7.68;;;14.40;99.90;;;;;;5044055;28;20029;-83
2021/04/29 04:22:21;;;;;;;10.98;8.25;;;14.30;99.90;;;;;;5044870;28;20064;-82
2021/04/29 04:24:47;;;;;;;9.50;8.35;;;14.10;99.90;;;;;;5045108;28;20559;-82
2021/04/29 04:27:12;;;;;;;9.73;8.73;;;14.10;99.90;;;;;;5040374;28;20053;-82
2021/04/29 04:29:38;;;;;;;11.55;8.55;;;14.10;99.90;;;;;;5042216;28;20051;-82
2021/04/29 04:32:04;;;;;;;9.88;8.40;;;14.00;99.90;;;;;;5048411;28;20041;-82
2021/04/29 04:34:29;;;;;;;9.15;8.23;;;14.00;99.90;;;;;;5047369;28;20108;-83
2021/04/29 04:36:55;;;;;;;10.52;9.35;;;13.90;99.90;;;;;;5034310;28;20409;-82
2021/04/29 04:39:21;;;;;;;12.95;11.77;;;13.90;99.90;;;;;;5051786;28;20021;-82
2021/04/29 04:41:47;;;;;;;11.40;9.88;;;13.80;99.90;;;;;;5050283;28;20036;-82
2021/04/29 04:44:12;;;;;;;11.05;9.40;;;13.80;99.90;;;;;;5042167;28;20060;-82
2021/04/29 04:46:38;;;;;;;11.32;9.43;;;14.00;99.90;;;;;;5048013;28;20047;-82
2021/04/29 04:49:04;;;;;;;10.13;8.57;;;13.80;99.90;;;;;;5047924;28;20481;-82
2021/04/29 04:51:30;;;;;;;11.68;9.23;;;14.00;99.90;;;;;;5049368;28;20033;-82
2021/04/29 04:53:55;;;;;;;10.05;8.98;;;13.80;99.90;;;;;;5052963;28;20036;-83
2021/04/29 04:56:21;;;;;;;10.80;9.40;;;13.60;99.90;;;;;;5048295;28;20033;-82
2021/04/29 04:58:47;;;;;;;11.70;9.80;;;13.70;99.90;;;;;;5038364;28;20025;-82
2021/04/29 05:01:12;;;;;;;10.15;9.00;;;13.60;99.90;;;;;;5045691;28;20037;-82
2021/04/29 05:03:38;;;;;;;10.98;9.27;;;13.70;99.90;;;;;;5047760;28;20029;-83
2021/04/29 05:06:04;;;;;;;10.75;8.93;;;13.70;99.90;;;;;;5050593;28;20020;-82
2021/04/29 05:08:29;;;;;;;10.80;9.35;;;13.80;99.90;;;;;;5048480;28;20489;-82
2021/04/29 05:10:55;;;;;;;10.55;9.20;;;13.80;99.90;;;;;;5046349;28;20037;-82
2021/04/29 05:13:22;;;;;;;10.40;9.30;;;14.10;99.90;;;;;;5041633;28;20028;-82
2021/04/29 05:15:48;;;;;;;10.23;9.07;;;14.10;99.90;;;;;;5047453;28;20543;-82
2021/04/29 05:18:14;;;;;;;13.18;8.88;;;13.90;99.90;;;;;;5051950;28;20037;-82
2021/04/29 05:20:39;;;;;;;12.18;9.50;;;14.00;99.90;;;;;;5049220;28;20025;-81
2021/04/29 05:23:05;;;;;;;10.13;8.93;;;13.90;99.90;;;;;;5047569;28;20374;-82
2021/04/29 05:25:31;;;;;;;10.82;9.15;;;14.00;99.90;;;;;;5047608;28;20040;-82
2021/04/29 05:28:02;;;;;;;13.63;10.23;;;14.30;99.90;;;;;;5039133;28;20026;-82
2021/04/29 05:30:28;;;;;;;13.00;10.70;;;14.20;99.90;;;;;;5033620;28;20029;-82
2021/04/29 05:32:54;;;;;;;12.95;11.55;;;14.10;99.90;;;;;;5051765;28;20382;-82
2021/04/29 05:35:20;;;;;;;12.13;10.25;;;14.10;99.90;;;;;;5047094;28;20044;-82
2021/04/29 05:37:46;;;;;;;12.93;11.52;;;14.10;99.90;;;;;;5040686;28;20528;-82
2021/04/29 05:40:12;;;;;;;14.55;11.82;;;14.10;99.90;;;;;;5047410;28;20036;-82
2021/04/29 05:42:39;;;;;;;13.43;11.60;;;14.20;99.90;;;;;;5017772;28;20035;-82
2021/04/29 05:45:06;;;;;;;12.82;11.20;;;14.20;99.90;;;;;;5044452;28;20033;-82
2021/04/29 05:47:32;;;;;;;13.35;11.05;;;14.40;99.90;;;;;;5047178;28;20036;-82
2021/04/29 05:49:57;;;;;;;13.43;11.43;;;14.40;99.90;;;;;;5046830;28;20025;-82
2021/04/29 05:52:23;;;;;;;12.20;10.90;;;14.50;99.90;;;;;;5045768;28;20040;-82
2021/04/29 05:54:49;;;;;;;13.18;10.40;;;14.80;99.90;;;;;;5046995;28;20448;-82
2021/04/29 05:57:14;;;;;;;10.57;9.40;;;14.60;99.90;;;;;;5044258;28;20048;-82
2021/04/29 05:59:40;;;;;;;10.73;8.95;;;15.00;99.90;;;;;;5048501;28;20120;-84
2021/04/29 06:02:06;;;;;;;10.95;8.05;;;14.80;99.90;;;;;;5046131;28;20025;-82
2021/04/29 06:04:32;;;;;;;9.57;8.57;;;14.80;99.90;;;;;;5047092;28;20107;-84
2021/04/29 06:06:57;;;;;;;11.30;9.23;;;14.70;99.90;;;;;;5046639;28;20064;-85
2021/04/29 06:09:23;;;;;;;9.63;8.63;;;14.70;99.90;;;;;;5050446;28;20555;-84
2021/04/29 06:11:48;;;;;;;8.57;7.55;;;14.80;99.90;;;;;;5041776;28;20128;-84
2021/04/29 06:14:14;;;;;;;9.73;8.70;;;14.80;99.90;;;;;;5042028;28;20499;-84
2021/04/29 06:16:40;;;;;;;9.20;7.30;;;14.70;99.90;;;;;;5046264;28;20041;-84
2021/04/29 06:19:06;;;;;;;8.98;8.07;;;14.60;99.90;;;;;;5046814;28;20021;-84
2021/04/29 06:21:32;;;;;;;9.82;7.88;;;14.30;99.90;;;;;;5048380;28;20116;-84
2021/04/29 06:23:58;;;;;;;11.13;8.00;;;14.30;99.90;;;;;;5034034;28;20025;-83
2021/04/29 06:26:23;;;;;;;9.27;8.27;;;14.40;99.90;;;;;;5044949;28;20049;-84
2021/04/29 06:28:49;;;;;;;11.18;8.73;;;14.20;99.90;;;;;;5046834;28;20017;-83
2021/04/29 06:31:15;;;;;;;10.48;9.38;;;14.10;99.90;;;;;;5044287;28;20416;-84
2021/04/29 06:33:41;;;;;;;12.75;9.65;;;14.10;99.90;;;;;;5045382;28;20455;-84
2021/04/29 06:36:07;;;;;;;12.63;10.05;;;14.40;99.90;;;;;;5052474;28;20115;-84
2021/04/29 06:38:34;;;;;;;14.63;9.57;;;14.50;99.90;;;;;;5042104;28;20060;-84
2021/04/29 06:41:00;;;;;;;14.05;9.32;;;14.20;99.90;;;;;;5045177;28;20021;-84
2021/04/29 06:43:26;;;;;;;11.77;9.80;;;14.50;99.90;;;;;;5036582;28;20129;-83
2021/04/29 06:45:52;;;;;;;10.73;9.20;;;14.70;99.90;;;;;;5045667;28;20057;-84
2021/04/29 06:48:17;;;;;;;9.52;8.52;;;14.80;99.90;;;;;;5050774;28;20063;-88
2021/04/29 06:50:43;;;;;;;10.25;7.78;;;14.90;99.90;;;;;;5043818;28;20032;-87
2021/04/29 06:53:09;;;;;;;7.32;6.40;;;15.10;99.90;;;;;;5046338;28;20052;-88
2021/04/29 06:55:34;;;;;;;8.57;6.40;;;15.20;99.90;;;;;;5045325;28;20384;-88
2021/04/29 06:58:00;;;;;;;9.85;7.80;;;15.20;99.90;;;;;;5037296;28;20489;-87
2021/04/29 07:00:26;;;;;;;11.95;10.25;;;15.40;99.90;;;;;;5029234;28;20052;-84
2021/04/29 07:02:55;;;;;;;10.65;9.63;;;14.90;99.90;;;;;;5049155;28;20083;-84
2021/04/29 07:05:21;;;;;;;11.77;9.98;;;15.20;99.90;;;;;;5045978;28;20128;-85
2021/04/29 07:07:50;;;;;;;12.63;9.95;;;15.00;99.90;;;;;;5046093;28;20115;-82
2021/04/29 07:10:16;;;;;;;10.57;9.48;;;15.30;99.90;;;;;;5044277;28;20025;-88
2021/04/29 07:12:41;;;;;;;12.95;11.57;;;15.00;99.90;;;;;;5037897;28;20025;-86
2021/04/29 07:15:07;;;;;;;12.63;11.13;;;14.90;99.90;;;;;;5051672;28;20100;-84
2021/04/29 07:17:33;;;;;;;12.98;10.70;;;14.90;99.90;;;;;;5046184;28;20037;-85
2021/04/29 07:19:58;;;;;;;13.95;12.48;;;15.00;99.90;;;;;;5037217;28;20400;-85
2021/04/29 07:22:24;;;;;;;13.00;11.13;;;15.10;99.90;;;;;;5033112;28;20028;-85
2021/04/29 07:24:50;;;;;;;11.90;10.63;;;15.00;38.00;;;;;;5045122;28;20060;-84
2021/04/29 07:27:15;;;;;;;12.48;10.73;;;15.20;1.00;;;;;;5047390;28;20032;-84
2021/04/29 07:29:41;;;;;;;12.55;10.20;;;15.40;1.00;;;;;;5047672;28;20017;-85
2021/04/29 07:32:07;;;;;;;10.85;9.85;;;15.60;1.00;;;;;;5044460;28;20559;-85
2021/04/29 07:34:32;;;;;;;10.00;9.00;;;15.80;1.00;;;;;;5045760;28;20028;-85
2021/04/29 07:36:59;;;;;;;11.30;9.02;;;16.20;1.00;;;;;;5043660;28;20108;-85
2021/04/29 07:39:25;;;;;;;9.85;7.80;;;16.10;1.00;;;;;;5048179;28;20036;-86
2021/04/29 07:41:50;;;;;;;8.60;7.68;;;16.40;1.00;;;;;;5050021;28;20041;-84
2021/04/29 07:44:16;;;;;;;9.95;7.45;;;16.60;1.00;;;;;;5045551;28;20036;-86
2021/04/29 07:46:42;;;;;;;8.68;6.80;;;16.50;1.00;;;;;;5045867;28;20107;-85
2021/04/29 07:49:08;;;;;;;6.88;6.28;;;16.50;1.00;;;;;;5044449;28;20017;-85
2021/04/29 07:51:34;;;;;;;8.68;6.18;;;16.50;1.00;;;;;;5046567;28;20083;-85
2021/04/29 07:54:03;;;;;;;9.52;6.70;;;16.50;1.00;;;;;;5051366;28;20025;-85
2021/04/29 07:56:29;;;;;;;7.10;5.03;;;16.20;1.00;;;;;;5045627;28;20095;-86
2021/04/29 07:58:54;;;;;;;9.07;5.38;;;16.10;1.00;;;;;;5039707;28;20029;-85
2021/04/29 08:01:20;;;;;;;8.10;4.75;;;16.20;1.00;;;;;;5029870;28;20029;-86
2021/04/29 08:03:45;;;;;;;5.47;4.95;;;16.50;1.00;;;;;;5030384;28;20025;-86
2021/04/29 08:06:11;;;;;;;5.85;5.35;;;16.40;1.00;;;;;;5035124;28;20055;-86
2021/04/29 08:08:37;;;;;;;7.32;4.80;;;16.70;1.00;;;;;;5035155;28;20405;-85
2021/04/29 08:11:02;;;;;;;5.30;4.80;;;16.70;1.00;;;;;;5033731;28;20488;-85
2021/04/29 08:13:28;;;;;;;8.52;5.32;;;16.90;1.00;;;;;;5033592;28;20037;-85
2021/04/29 08:15:54;;;;;;;5.38;4.88;;;17.00;1.00;;;;;;5033776;28;20463;-86
2021/04/29 08:18:19;;;;;;;4.97;4.47;;;16.90;1.00;;;;;;5035009;28;20398;-86
2021/04/29 08:20:45;;;;;;;5.60;5.10;;;17.00;1.00;;;;;;5035269;28;20044;-86
2021/04/29 08:23:11;;;;;;;9.52;5.72;;;16.90;1.00;;;;;;5033831;28;20022;-85
2021/04/29 08:25:37;;;;;;;8.52;6.15;;;17.10;1.00;;;;;;5032178;28;20037;-85
2021/04/29 08:28:03;;;;;;;6.38;5.03;;;16.80;1.00;;;;;;5032085;28;20444;-85
2021/04/29 08:30:29;;;;;;;6.65;5.68;;;16.80;1.00;;;;;;5033503;28;20033;-84
2021/04/29 08:32:57;;;;;;;5.93;5.22;;;16.90;99.90;;;;;;5035420;28;20026;-86
2021/04/29 08:35:23;;;;;;;5.85;5.25;;;17.00;99.90;;;;;;5033414;28;20033;-85
2021/04/29 08:37:49;;;;;;;5.82;5.13;;;17.10;99.90;;;;;;5033074;28;20081;-85
2021/04/29 08:40:15;;;;;;;6.38;5.78;;;17.10;99.90;;;;;;5033253;28;20238;-86
2021/04/29 08:42:42;;;;;;;5.50;3.60;;;17.10;99.90;;;;;;5031796;28;20025;-86
2021/04/29 08:45:10;;;;;;;6.65;4.07;;;17.50;99.90;;;;;;5035253;28;20081;-86
2021/04/29 08:47:36;;;;;;;3.00;2.67;;;17.70;99.90;;;;;;5034514;28;20493;-86
2021/04/29 08:50:03;;;;;;;2.70;2.50;;;17.60;99.90;;;;;;5033189;28;20063;-86
2021/04/29 08:52:30;;;;;;;3.58;2.40;;;18.10;99.90;;;;;;5033204;28;20030;-86
2021/04/29 08:54:55;;;;;;;2.65;2.00;;;18.30;99.90;;;;;;5033130;28;20485;-86
2021/04/29 08:57:21;;;;;;;3.45;2.10;;;18.10;99.90;;;;;;5033347;28;20164;-85
2021/04/29 08:59:48;;;;;;;3.40;2.67;;;18.40;99.90;;;;;;5034656;28;20029;-86
2021/04/29 09:02:13;;;;;;;3.00;2.67;;;18.80;99.90;;;;;;5033213;28;20048;-85
2021/04/29 09:04:41;;;;;;;47.92;7.57;;;18.80;99.90;;;;;;5034074;28;20026;-86
2021/04/29 09:07:21;;;;;;;2.88;2.30;;;18.40;99.90;;;;;;5031682;28;20037;-86
2021/04/29 09:09:47;;;;;;;6.72;2.47;;;17.90;99.90;;;;;;5017845;28;20104;-85
2021/04/29 09:12:13;;;;;;;2.63;2.20;;;18.00;99.90;;;;;;5034256;28;20430;-86
2021/04/29 09:14:43;;;;;;;3.55;2.20;;;18.10;99.90;;;;;;5033339;28;20021;-85
2021/04/29 09:17:10;;;;;;;19.77;4.15;;;18.00;99.90;;;;;;5031255;28;20041;-86
2021/04/29 09:19:48;;;;;;;3.20;2.28;;;18.10;99.90;;;;;;5033167;28;20083;-86
2021/04/29 09:22:19;;;;;;;2.50;2.30;;;17.80;99.90;;;;;;5032833;28;20033;-86
2021/04/29 09:24:44;;;;;;;42.47;4.97;;;18.00;99.90;;;;;;5032245;28;20452;-86
2021/04/29 09:27:17;;;;;;;3.53;2.97;;;18.30;99.90;;;;;;5033664;28;20025;-85
2021/04/29 09:30:04;;;;;;;5.25;2.80;;;18.00;99.90;;;;;;5031352;28;20111;-85
2021/04/29 09:32:35;;;;;;;371.42;35.60;;;17.90;99.90;;;;;;5032522;28;20049;-85
2021/04/29 09:35:03;;;;;;;3.65;3.00;;;17.80;99.90;;;;;;5032556;28;20032;-85
2021/04/29 09:37:34;;;;;;;3.25;2.35;;;17.80;99.90;;;;;;5032092;28;20091;-86
2021/04/29 09:40:03;;;;;;;3.13;2.83;;;17.50;99.90;;;;;;5032007;28;20025;-86
2021/04/29 09:42:37;;;;;;;3.55;3.13;;;17.30;99.90;;;;;;5032894;28;20022;-85
2021/04/29 09:45:15;;;;;;;9.80;2.90;;;17.20;99.90;;;;;;5034167;28;20022;-85
2021/04/29 09:47:41;;;;;;;6.85;2.75;;;17.00;99.90;;;;;;5031974;28;20108;-86
2021/04/29 09:50:07;;;;;;;3.28;2.55;;;16.80;99.90;;;;;;5030658;28;20501;-86
2021/04/29 09:52:33;;;;;;;3.88;3.10;;;16.40;99.90;;;;;;5031580;28;20091;-86
2021/04/29 09:55:04;;;;;;;3.55;2.70;;;16.50;99.90;;;;;;5033635;28;20033;-86
2021/04/29 09:57:30;;;;;;;2.63;2.42;;;16.40;99.90;;;;;;5032011;28;20811;-86
2021/04/29 10:00:00;;;;;;;4.95;2.58;;;16.50;99.90;;;;;;5034103;28;20083;-86
2021/04/29 10:02:29;;;;;;;5.45;2.85;;;16.60;99.90;;;;;;5031942;28;20053;-86
2021/04/29 10:04:55;;;;;;;5.55;3.45;;;16.70;99.90;;;;;;5031962;28;20478;-86
2021/04/29 10:07:22;;;;;;;6.10;4.80;;;16.80;99.90;;;;;;5031488;28;20029;-86
2021/04/29 10:09:49;;;;;;;8.30;4.95;;;17.00;99.90;;;;;;5030360;28;20030;-86
2021/04/29 10:12:20;;;;;;;197.38;22.85;;;17.10;99.90;;;;;;5033452;28;20022;-86
2021/04/29 10:14:50;;;;;;;736.92;82.18;;;17.40;99.90;;;;;;5032965;28;20013;-86
2021/04/29 10:17:18;;;;;;;7.43;4.95;;;17.50;99.90;;;;;;5029891;28;20048;-86
2021/04/29 10:19:50;;;;;;;65.13;8.75;;;17.50;99.90;;;;;;5031821;28;20028;-86
2021/04/29 10:22:18;;;;;;;21.48;5.35;;;17.80;99.90;;;;;;5030933;28;20082;-86
2021/04/29 10:24:45;;;;;;;40.35;7.03;;;17.50;99.90;;;;;;5029960;28;20029;-86
2021/04/29 10:27:13;;;;;;;4.88;4.47;;;17.60;99.90;;;;;;5032104;28;20029;-86
2021/04/29 10:29:39;;;;;;;43.78;8.73;;;17.60;99.90;;;;;;5031073;28;20416;-86
2021/04/29 10:32:12;;;;;;;131.00;18.20;;;17.70;99.90;;;;;;5029884;28;20120;-85
2021/04/29 10:34:45;;;;;;;12.70;5.30;;;17.60;99.90;;;;;;5031307;28;20080;-85
2021/04/29 10:37:23;;;;;;;13.45;5.22;;;17.60;99.90;;;;;;5031011;28;20095;-85
2021/04/29 10:39:50;;;;;;;5.05;4.55;;;17.60;99.90;;;;;;5016891;28;20407;-85
2021/04/29 10:42:16;;;;;;;6.93;4.70;;;17.50;99.90;;;;;;5032422;28;20026;-85
2021/04/29 10:44:46;;;;;;;14.02;5.97;;;17.50;99.90;;;;;;5032429;28;20026;-85
2021/04/29 10:47:29;;;;;;;5.13;4.68;;;17.30;99.90;;;;;;5031074;28;20025;-85
2021/04/29 10:50:13;;;;;;;13.70;5.20;;;17.40;99.90;;;;;;5029779;28;20029;-85
2021/04/29 10:53:05;;;;;;;4.97;4.55;;;17.40;99.90;;;;;;5030672;28;20019;-85
2021/04/29 10:55:33;;;;;;;8.02;4.88;;;17.50;99.90;;;;;;5030231;28;20125;-85
2021/04/29 10:58:00;;;;;;;9.38;5.57;;;17.30;99.90;;;;;;5030810;28;20041;-85
2021/04/29 11:00:29;;;;;;;8.40;6.57;;;17.40;99.90;;;;;;5031477;28;20025;-86
2021/04/29 11:02:58;;;;;;;7.15;5.13;;;17.70;99.90;;;;;;5033258;28;20036;-85
2021/04/29 11:05:25;;;;;;;7.03;5.50;;;17.80;99.90;;;;;;5028638;28;20390;-85
2021/04/29 11:07:50;;;;;;;7.20;5.00;;;17.80;99.90;;;;;;5029614;28;20485;-85
2021/04/29 11:10:18;;;;;;;10.63;4.68;;;18.10;99.90;;;;;;5031042;28;20192;-85
2021/04/29 11:12:51;;;;;;;5.50;3.60;;;18.10;99.90;;;;;;5030820;28;20033;-85
2021/04/29 11:15:24;;;;;;;3.67;3.38;;;18.00;99.90;;;;;;5032197;28;20029;-85
2021/04/29 11:18:13;;;;;;;6.28;4.30;;;18.10;99.90;;;;;;5030403;28;20041;-85
2021/04/29 11:20:56;;;;;;;6.07;4.40;;;18.10;99.90;;;;;;5029604;28;20088;-85
2021/04/29 11:23:26;;;;;;;7.13;4.10;;;18.10;99.90;;;;;;5031213;28;20026;-85
2021/04/29 11:26:03;;;;;;;9.02;4.50;;;18.20;99.90;;;;;;5030695;28;20485;-85
2021/04/29 11:28:29;;;;;;;5.07;4.47;;;18.20;99.90;;;;;;5029459;28;20112;-85
2021/04/29 11:30:55;;;;;;;4.45;3.08;;;18.20;99.90;;;;;;5030716;28;20120;-87
2021/04/29 11:33:21;;;;;;;6.03;3.00;;;18.20;99.90;;;;;;5031356;28;20112;-85
2021/04/29 11:35:46;;;;;;;3.05;1.67;;;18.10;99.90;;;;;;5047408;28;20173;-85
2021/04/29 11:38:13;;;;;;;3.72;1.80;;;17.60;99.90;;;;;;5031326;28;20091;-85
2021/04/29 11:40:39;;;;;;;2.40;2.00;;;17.80;99.90;;;;;;5036646;28;20021;-85
2021/04/29 11:43:06;;;;;;;2.92;2.40;;;17.80;99.90;;;;;;5035739;28;20025;-85
2021/04/29 11:45:36;;;;;;;3.45;1.75;;;17.70;99.90;;;;;;5036909;28;20065;-85
2021/04/29 11:48:09;;;;;;;4.07;1.60;;;17.50;99.90;;;;;;5038800;28;20087;-85
2021/04/29 11:50:47;;;;;;;2.47;2.10;;;17.30;99.90;;;;;;5036118;28;20029;-85
2021/04/29 11:53:23;;;;;;;1.98;1.60;;;17.50;99.90;;;;;;5037198;28;20026;-85
2021/04/29 11:56:04;;;;;;;2.92;1.48;;;17.30;99.90;;;;;;5036649;28;20424;-85
2021/04/29 11:58:31;;;;;;;2.13;1.50;;;17.40;99.90;;;;;;5036535;28;20029;-85
2021/04/29 12:00:57;;;;;;;4.72;1.60;;;17.50;99.90;;;;;;5036769;28;20477;-84
2021/04/29 12:03:25;;;;;;;2.75;1.05;;;17.40;99.90;;;;;;5036500;28;20029;-85
2021/04/29 12:06:02;;;;;;;1.60;1.20;;;17.20;99.90;;;;;;5037123;28;20068;-84
2021/04/29 12:08:32;;;;;;;3.13;1.27;;;17.00;99.90;;;;;;5036664;28;20053;-85
2021/04/29 12:11:01;;;;;;;3.72;1.20;;;16.80;99.90;;;;;;5036861;28;20400;-85
2021/04/29 12:13:37;;;;;;;2.22;1.30;;;17.20;99.90;;;;;;5036476;28;20106;-85
2021/04/29 12:16:07;;;;;;;1.55;1.20;;;17.00;99.90;;;;;;5036853;28;20493;-85
2021/04/29 12:18:34;;;;;;;3.42;1.40;;;17.10;99.90;;;;;;5036126;28;20049;-85
2021/04/29 12:21:01;;;;;;;2.72;1.23;;;17.20;99.90;;;;;;5038858;28;20355;-84
2021/04/29 12:23:27;;;;;;;3.17;1.17;;;17.20;99.90;;;;;;5035264;28;20497;-84
2021/04/29 12:26:02;;;;;;;2.67;1.20;;;17.20;99.90;;;;;;5036428;28;20040;-85
2021/04/29 12:28:31;;;;;;;2.80;1.13;;;17.00;99.90;;;;;;5036331;28;20044;-85
2021/04/29 12:30:57;;;;;;;2.97;1.70;;;16.90;99.90;;;;;;5036514;28;20528;-85
2021/04/29 12:33:23;;;;;;;2.97;1.50;;;16.90;99.90;;;;;;5036948;28;20029;-85
2021/04/29 12:35:49;;;;;;;4.78;2.85;;;16.90;99.90;;;;;;5038166;28;20033;-85
2021/04/29 12:38:18;;;;;;;4.75;3.00;;;17.00;99.90;;;;;;5034263;28;20034;-85
2021/04/29 12:40:44;;;;;;;3.10;2.50;;;16.90;99.90;;;;;;5036139;28;20116;-84
2021/04/29 12:43:23;;;;;;;4.20;2.95;;;16.60;99.90;;;;;;5037032;28;20117;-85